sensor_id;sensor_type;location;lat;lon;timestamp;temperature;humidity
3069;DHT22;1545;51.728;8.796;2023-12-20T00:02:07;7.50;98.80
3069;DHT22;1545;51.728;8.796;2023-12-20T00:04:33;7.40;98.80
3069;DHT22;1545;51.728;8.796;2023-12-20T00:06:59;7.40;98.80
3069;DHT22;1545;51.728;8.796;2023-12-20T00:09:24;7.40;98.80
3069;DHT22;1545;51.728;8.796;2023-12-20T00:11:49;7.30;98.80
3069;DHT22;1545;51.728;8.796;2023-12-20T00:14:15;7.30;98.80
3069;DHT22;1545;51.728;8.796;2023-12-20T00:16:40;7.30;98.80
3069;DHT22;1545;51.728;8.796;2023-12-20T00:19:06;7.30;98.80
3069;DHT22;1545;51.728;8.796;2023-12-20T00:21:31;7.20;98.80
3069;DHT22;1545;51.728;8.796;2023-12-20T00:23:57;7.10;98.80
3069;DHT22;1545;51.728;8.796;2023-12-20T00:26:22;7.00;98.80
3069;DHT22;1545;51.728;8.796;2023-12-20T00:28:48;7.00;98.80
3069;DHT22;1545;51.728;8.796;2023-12-20T00:31:13;7.00;98.80
3069;DHT22;1545;51.728;8.796;2023-12-20T00:33:39;7.00;98.80
3069;DHT22;1545;51.728;8.796;2023-12-20T00:36:08;6.90;98.80
3069;DHT22;1545;51.728;8.796;2023-12-20T00:38:34;7.00;98.80
3069;DHT22;1545;51.728;8.796;2023-12-20T00:40:59;7.00;98.80
3069;DHT22;1545;51.728;8.796;2023-12-20T00:43:25;7.00;98.80
3069;DHT22;1545;51.728;8.796;2023-12-20T00:45:50;7.00;98.80
3069;DHT22;1545;51.728;8.796;2023-12-20T00:48:16;7.00;98.80
3069;DHT22;1545;51.728;8.796;2023-12-20T00:50:41;7.00;98.80
3069;DHT22;1545;51.728;8.796;2023-12-20T00:53:07;7.00;98.80
3069;DHT22;1545;51.728;8.796;2023-12-20T00:55:32;6.90;98.80
3069;DHT22;1545;51.728;8.796;2023-12-20T00:57:58;6.90;98.80
3069;DHT22;1545;51.728;8.796;2023-12-20T01:00:24;6.80;98.80
3069;DHT22;1545;51.728;8.796;2023-12-20T01:02:50;6.70;98.80
3069;DHT22;1545;51.728;8.796;2023-12-20T01:05:17;6.70;98.80
3069;DHT22;1545;51.728;8.796;2023-12-20T01:07:43;6.70;98.80
3069;DHT22;1545;51.728;8.796;2023-12-20T01:10:08;6.70;98.80
3069;DHT22;1545;51.728;8.796;2023-12-20T01:12:35;6.60;98.80
3069;DHT22;1545;51.728;8.796;2023-12-20T01:15:01;6.60;98.80
3069;DHT22;1545;51.728;8.796;2023-12-20T01:17:26;6.60;98.80
3069;DHT22;1545;51.728;8.796;2023-12-20T01:19:51;6.60;98.80
3069;DHT22;1545;51.728;8.796;2023-12-20T01:22:17;6.50;98.80
3069;DHT22;1545;51.728;8.796;2023-12-20T01:24:42;6.40;98.80
3069;DHT22;1545;51.728;8.796;2023-12-20T01:27:08;6.40;98.80
3069;DHT22;1545;51.728;8.796;2023-12-20T01:29:33;6.30;98.80
3069;DHT22;1545;51.728;8.796;2023-12-20T01:31:59;6.30;98.80
3069;DHT22;1545;51.728;8.796;2023-12-20T01:34:24;6.20;98.80
3069;DHT22;1545;51.728;8.796;2023-12-20T01:36:50;6.10;98.80
3069;DHT22;1545;51.728;8.796;2023-12-20T01:39:15;6.00;98.80
3069;DHT22;1545;51.728;8.796;2023-12-20T01:41:40;6.00;98.80
3069;DHT22;1545;51.728;8.796;2023-12-20T01:44:06;5.90;98.80
3069;DHT22;1545;51.728;8.796;2023-12-20T01:46:31;6.00;98.80
3069;DHT22;1545;51.728;8.796;2023-12-20T01:48:57;6.00;98.80
3069;DHT22;1545;51.728;8.796;2023-12-20T01:51:23;6.10;98.80
3069;DHT22;1545;51.728;8.796;2023-12-20T01:53:50;6.10;98.80
3069;DHT22;1545;51.728;8.796;2023-12-20T01:56:15;6.20;98.80
3069;DHT22;1545;51.728;8.796;2023-12-20T01:58:44;6.20;98.80
3069;DHT22;1545;51.728;8.796;2023-12-20T02:01:12;6.30;98.80
3069;DHT22;1545;51.728;8.796;2023-12-20T02:03:41;6.30;98.80
3069;DHT22;1545;51.728;8.796;2023-12-20T02:06:07;6.40;98.80
3069;DHT22;1545;51.728;8.796;2023-12-20T02:08:33;6.40;98.80
3069;DHT22;1545;51.728;8.796;2023-12-20T02:11:00;6.40;98.80
3069;DHT22;1545;51.728;8.796;2023-12-20T02:13:25;6.40;98.80
3069;DHT22;1545;51.728;8.796;2023-12-20T02:15:52;6.40;98.80
3069;DHT22;1545;51.728;8.796;2023-12-20T02:18:17;6.40;98.80
3069;DHT22;1545;51.728;8.796;2023-12-20T02:20:43;6.40;98.80
3069;DHT22;1545;51.728;8.796;2023-12-20T02:23:08;6.40;98.80
3069;DHT22;1545;51.728;8.796;2023-12-20T02:25:34;6.40;98.80
3069;DHT22;1545;51.728;8.796;2023-12-20T02:28:00;6.40;98.80
3069;DHT22;1545;51.728;8.796;2023-12-20T02:30:25;6.40;98.80
3069;DHT22;1545;51.728;8.796;2023-12-20T02:32:51;6.40;98.80
3069;DHT22;1545;51.728;8.796;2023-12-20T02:35:17;6.30;98.80
3069;DHT22;1545;51.728;8.796;2023-12-20T02:37:43;6.30;98.80
3069;DHT22;1545;51.728;8.796;2023-12-20T02:40:08;6.30;98.80
3069;DHT22;1545;51.728;8.796;2023-12-20T02:42:36;6.30;98.80
3069;DHT22;1545;51.728;8.796;2023-12-20T02:45:02;6.30;98.80
3069;DHT22;1545;51.728;8.796;2023-12-20T02:47:27;6.20;98.80
3069;DHT22;1545;51.728;8.796;2023-12-20T02:49:55;6.10;98.80
3069;DHT22;1545;51.728;8.796;2023-12-20T02:52:21;6.10;98.80
3069;DHT22;1545;51.728;8.796;2023-12-20T02:54:46;6.00;98.80
3069;DHT22;1545;51.728;8.796;2023-12-20T02:57:12;5.90;98.80
3069;DHT22;1545;51.728;8.796;2023-12-20T02:59:37;5.90;98.80
3069;DHT22;1545;51.728;8.796;2023-12-20T03:02:03;5.90;98.80
3069;DHT22;1545;51.728;8.796;2023-12-20T03:04:28;5.90;98.80
3069;DHT22;1545;51.728;8.796;2023-12-20T03:06:54;5.90;98.80
3069;DHT22;1545;51.728;8.796;2023-12-20T03:09:19;5.90;98.80
3069;DHT22;1545;51.728;8.796;2023-12-20T03:11:44;6.00;98.80
3069;DHT22;1545;51.728;8.796;2023-12-20T03:14:10;6.00;98.80
3069;DHT22;1545;51.728;8.796;2023-12-20T03:16:35;6.00;98.80
3069;DHT22;1545;51.728;8.796;2023-12-20T03:19:01;6.00;98.80
3069;DHT22;1545;51.728;8.796;2023-12-20T03:21:26;6.00;98.80
3069;DHT22;1545;51.728;8.796;2023-12-20T03:23:52;6.00;98.80
3069;DHT22;1545;51.728;8.796;2023-12-20T03:26:17;6.00;98.80
3069;DHT22;1545;51.728;8.796;2023-12-20T03:28:44;6.10;98.80
3069;DHT22;1545;51.728;8.796;2023-12-20T03:31:10;6.10;98.80
3069;DHT22;1545;51.728;8.796;2023-12-20T03:33:35;6.10;98.80
3069;DHT22;1545;51.728;8.796;2023-12-20T03:36:01;6.10;98.80
3069;DHT22;1545;51.728;8.796;2023-12-20T03:38:26;6.20;98.80
3069;DHT22;1545;51.728;8.796;2023-12-20T03:40:52;6.20;98.80
3069;DHT22;1545;51.728;8.796;2023-12-20T03:43:17;6.10;98.80
3069;DHT22;1545;51.728;8.796;2023-12-20T03:45:43;6.20;98.80
3069;DHT22;1545;51.728;8.796;2023-12-20T03:48:08;6.20;98.80
3069;DHT22;1545;51.728;8.796;2023-12-20T03:50:34;6.20;98.80
3069;DHT22;1545;51.728;8.796;2023-12-20T03:53:00;6.20;98.80
3069;DHT22;1545;51.728;8.796;2023-12-20T03:55:25;6.20;98.80
3069;DHT22;1545;51.728;8.796;2023-12-20T03:57:51;6.20;98.80
3069;DHT22;1545;51.728;8.796;2023-12-20T04:00:16;6.10;98.80
3069;DHT22;1545;51.728;8.796;2023-12-20T04:02:42;6.10;98.80
3069;DHT22;1545;51.728;8.796;2023-12-20T04:05:09;6.20;98.80
3069;DHT22;1545;51.728;8.796;2023-12-20T04:07:35;6.20;98.80
3069;DHT22;1545;51.728;8.796;2023-12-20T04:10:02;6.10;98.80
3069;DHT22;1545;51.728;8.796;2023-12-20T04:12:29;6.10;98.80
3069;DHT22;1545;51.728;8.796;2023-12-20T04:14:54;6.10;98.80
3069;DHT22;1545;51.728;8.796;2023-12-20T04:17:20;6.10;98.80
3069;DHT22;1545;51.728;8.796;2023-12-20T04:19:48;6.10;98.80
3069;DHT22;1545;51.728;8.796;2023-12-20T04:22:13;6.10;98.80
3069;DHT22;1545;51.728;8.796;2023-12-20T04:24:39;6.10;98.80
3069;DHT22;1545;51.728;8.796;2023-12-20T04:27:04;6.10;98.80
3069;DHT22;1545;51.728;8.796;2023-12-20T04:29:30;6.10;98.80
3069;DHT22;1545;51.728;8.796;2023-12-20T04:31:55;6.10;98.80
3069;DHT22;1545;51.728;8.796;2023-12-20T04:34:21;6.10;98.80
3069;DHT22;1545;51.728;8.796;2023-12-20T04:36:47;6.00;98.80
3069;DHT22;1545;51.728;8.796;2023-12-20T04:39:13;6.00;98.80
3069;DHT22;1545;51.728;8.796;2023-12-20T04:41:39;5.90;98.80
3069;DHT22;1545;51.728;8.796;2023-12-20T04:44:04;5.90;98.80
3069;DHT22;1545;51.728;8.796;2023-12-20T04:46:29;5.90;98.80
3069;DHT22;1545;51.728;8.796;2023-12-20T04:48:55;5.90;98.80
3069;DHT22;1545;51.728;8.796;2023-12-20T04:51:20;5.90;98.80
3069;DHT22;1545;51.728;8.796;2023-12-20T04:53:46;6.00;98.80
3069;DHT22;1545;51.728;8.796;2023-12-20T04:56:11;6.00;98.80
3069;DHT22;1545;51.728;8.796;2023-12-20T04:58:37;6.00;98.80
3069;DHT22;1545;51.728;8.796;2023-12-20T05:01:04;6.00;98.80
3069;DHT22;1545;51.728;8.796;2023-12-20T05:03:30;6.00;98.80
3069;DHT22;1545;51.728;8.796;2023-12-20T05:05:56;6.00;98.80
3069;DHT22;1545;51.728;8.796;2023-12-20T05:08:21;5.90;98.80
3069;DHT22;1545;51.728;8.796;2023-12-20T05:10:46;5.90;98.80
3069;DHT22;1545;51.728;8.796;2023-12-20T05:13:12;5.90;98.80
3069;DHT22;1545;51.728;8.796;2023-12-20T05:15:38;5.90;98.80
3069;DHT22;1545;51.728;8.796;2023-12-20T05:18:04;5.90;98.80
3069;DHT22;1545;51.728;8.796;2023-12-20T05:20:29;5.90;98.80
3069;DHT22;1545;51.728;8.796;2023-12-20T05:22:55;5.90;98.80
3069;DHT22;1545;51.728;8.796;2023-12-20T05:25:20;6.00;98.80
3069;DHT22;1545;51.728;8.796;2023-12-20T05:27:46;6.00;98.80
3069;DHT22;1545;51.728;8.796;2023-12-20T05:30:11;6.00;98.80
3069;DHT22;1545;51.728;8.796;2023-12-20T05:32:37;6.00;98.80
3069;DHT22;1545;51.728;8.796;2023-12-20T05:35:03;6.00;98.80
3069;DHT22;1545;51.728;8.796;2023-12-20T05:37:28;6.00;98.80
3069;DHT22;1545;51.728;8.796;2023-12-20T05:39:54;6.00;98.80
3069;DHT22;1545;51.728;8.796;2023-12-20T05:42:19;6.00;98.80
3069;DHT22;1545;51.728;8.796;2023-12-20T05:44:45;6.00;98.80
3069;DHT22;1545;51.728;8.796;2023-12-20T05:47:10;6.00;98.80
3069;DHT22;1545;51.728;8.796;2023-12-20T05:49:36;6.00;98.80
3069;DHT22;1545;51.728;8.796;2023-12-20T05:52:01;6.00;98.80
3069;DHT22;1545;51.728;8.796;2023-12-20T05:54:26;6.00;98.80
3069;DHT22;1545;51.728;8.796;2023-12-20T05:56:52;6.00;98.80
3069;DHT22;1545;51.728;8.796;2023-12-20T05:59:17;6.00;98.80
3069;DHT22;1545;51.728;8.796;2023-12-20T06:01:43;6.00;98.80
3069;DHT22;1545;51.728;8.796;2023-12-20T06:04:08;6.00;98.80
3069;DHT22;1545;51.728;8.796;2023-12-20T06:06:34;6.00;98.80
3069;DHT22;1545;51.728;8.796;2023-12-20T06:09:00;6.00;98.80
3069;DHT22;1545;51.728;8.796;2023-12-20T06:11:28;6.00;98.80
3069;DHT22;1545;51.728;8.796;2023-12-20T06:13:53;6.00;98.80
3069;DHT22;1545;51.728;8.796;2023-12-20T06:16:19;6.00;98.80
3069;DHT22;1545;51.728;8.796;2023-12-20T06:18:44;6.00;98.80
3069;DHT22;1545;51.728;8.796;2023-12-20T06:21:10;6.00;98.80
3069;DHT22;1545;51.728;8.796;2023-12-20T06:23:38;6.00;98.80
3069;DHT22;1545;51.728;8.796;2023-12-20T06:26:04;6.00;98.80
3069;DHT22;1545;51.728;8.796;2023-12-20T06:28:29;6.00;98.80
3069;DHT22;1545;51.728;8.796;2023-12-20T06:30:55;6.00;98.80
3069;DHT22;1545;51.728;8.796;2023-12-20T06:33:22;6.00;98.80
3069;DHT22;1545;51.728;8.796;2023-12-20T06:35:48;6.10;98.80
3069;DHT22;1545;51.728;8.796;2023-12-20T06:38:13;6.10;98.80
3069;DHT22;1545;51.728;8.796;2023-12-20T06:40:39;6.20;98.80
3069;DHT22;1545;51.728;8.796;2023-12-20T06:43:04;6.20;98.80
3069;DHT22;1545;51.728;8.796;2023-12-20T06:45:32;6.30;98.80
3069;DHT22;1545;51.728;8.796;2023-12-20T06:47:57;6.30;98.80
3069;DHT22;1545;51.728;8.796;2023-12-20T06:50:23;6.30;98.80
3069;DHT22;1545;51.728;8.796;2023-12-20T06:52:49;6.30;98.80
3069;DHT22;1545;51.728;8.796;2023-12-20T06:55:14;6.30;98.80
3069;DHT22;1545;51.728;8.796;2023-12-20T06:57:40;6.30;98.80
3069;DHT22;1545;51.728;8.796;2023-12-20T07:00:06;6.20;98.80
3069;DHT22;1545;51.728;8.796;2023-12-20T07:02:32;6.20;98.80
3069;DHT22;1545;51.728;8.796;2023-12-20T07:04:57;6.20;98.80
3069;DHT22;1545;51.728;8.796;2023-12-20T07:07:23;6.20;98.80
3069;DHT22;1545;51.728;8.796;2023-12-20T07:09:49;6.20;98.80
3069;DHT22;1545;51.728;8.796;2023-12-20T07:12:15;6.20;98.80
3069;DHT22;1545;51.728;8.796;2023-12-20T07:14:40;6.20;98.80
3069;DHT22;1545;51.728;8.796;2023-12-20T07:17:06;6.20;98.80
3069;DHT22;1545;51.728;8.796;2023-12-20T07:19:37;6.20;98.80
3069;DHT22;1545;51.728;8.796;2023-12-20T07:22:03;6.20;98.80
3069;DHT22;1545;51.728;8.796;2023-12-20T07:24:29;6.10;98.80
3069;DHT22;1545;51.728;8.796;2023-12-20T07:26:54;6.10;98.80
3069;DHT22;1545;51.728;8.796;2023-12-20T07:29:20;6.10;98.80
3069;DHT22;1545;51.728;8.796;2023-12-20T07:31:45;6.10;98.80
3069;DHT22;1545;51.728;8.796;2023-12-20T07:34:11;6.10;98.80
3069;DHT22;1545;51.728;8.796;2023-12-20T07:36:36;6.10;98.80
3069;DHT22;1545;51.728;8.796;2023-12-20T07:39:02;6.10;98.80
3069;DHT22;1545;51.728;8.796;2023-12-20T07:41:28;6.10;98.80
3069;DHT22;1545;51.728;8.796;2023-12-20T07:43:54;6.20;98.80
3069;DHT22;1545;51.728;8.796;2023-12-20T07:46:21;6.20;98.80
3069;DHT22;1545;51.728;8.796;2023-12-20T07:48:48;6.20;98.80
3069;DHT22;1545;51.728;8.796;2023-12-20T07:51:14;6.10;98.80
3069;DHT22;1545;51.728;8.796;2023-12-20T07:53:39;6.10;98.80
3069;DHT22;1545;51.728;8.796;2023-12-20T07:56:18;6.10;98.80
3069;DHT22;1545;51.728;8.796;2023-12-20T07:58:45;6.10;98.80
3069;DHT22;1545;51.728;8.796;2023-12-20T08:01:11;6.10;98.80
3069;DHT22;1545;51.728;8.796;2023-12-20T08:03:37;6.10;98.80
3069;DHT22;1545;51.728;8.796;2023-12-20T08:06:03;6.10;98.80
3069;DHT22;1545;51.728;8.796;2023-12-20T08:08:28;6.10;98.80
3069;DHT22;1545;51.728;8.796;2023-12-20T08:10:54;6.10;98.80
3069;DHT22;1545;51.728;8.796;2023-12-20T08:13:19;6.10;98.80
3069;DHT22;1545;51.728;8.796;2023-12-20T08:15:45;6.10;98.80
3069;DHT22;1545;51.728;8.796;2023-12-20T08:18:10;6.10;98.80
3069;DHT22;1545;51.728;8.796;2023-12-20T08:20:35;6.20;98.80
3069;DHT22;1545;51.728;8.796;2023-12-20T08:23:01;6.20;98.80
3069;DHT22;1545;51.728;8.796;2023-12-20T08:25:26;6.20;98.80
3069;DHT22;1545;51.728;8.796;2023-12-20T08:27:53;6.20;98.80
3069;DHT22;1545;51.728;8.796;2023-12-20T08:30:18;6.20;98.80
3069;DHT22;1545;51.728;8.796;2023-12-20T08:32:50;6.20;98.80
3069;DHT22;1545;51.728;8.796;2023-12-20T08:35:15;6.20;98.80
3069;DHT22;1545;51.728;8.796;2023-12-20T08:37:41;6.30;98.80
3069;DHT22;1545;51.728;8.796;2023-12-20T08:40:06;6.30;98.80
3069;DHT22;1545;51.728;8.796;2023-12-20T08:42:32;6.20;98.80
3069;DHT22;1545;51.728;8.796;2023-12-20T08:44:58;6.30;98.80
3069;DHT22;1545;51.728;8.796;2023-12-20T08:47:24;6.30;98.80
3069;DHT22;1545;51.728;8.796;2023-12-20T08:49:50;6.30;98.80
3069;DHT22;1545;51.728;8.796;2023-12-20T08:52:15;6.30;98.80
3069;DHT22;1545;51.728;8.796;2023-12-20T08:54:41;6.30;98.80
3069;DHT22;1545;51.728;8.796;2023-12-20T08:57:06;6.30;98.80
3069;DHT22;1545;51.728;8.796;2023-12-20T08:59:32;6.30;98.80
3069;DHT22;1545;51.728;8.796;2023-12-20T09:01:58;6.30;98.80
3069;DHT22;1545;51.728;8.796;2023-12-20T09:04:23;6.30;98.80
3069;DHT22;1545;51.728;8.796;2023-12-20T09:06:49;6.40;98.80
3069;DHT22;1545;51.728;8.796;2023-12-20T09:09:14;6.40;98.80
3069;DHT22;1545;51.728;8.796;2023-12-20T09:11:40;6.40;98.80
3069;DHT22;1545;51.728;8.796;2023-12-20T09:14:05;6.40;98.80
3069;DHT22;1545;51.728;8.796;2023-12-20T09:16:31;6.40;98.80
3069;DHT22;1545;51.728;8.796;2023-12-20T09:18:57;6.50;98.80
3069;DHT22;1545;51.728;8.796;2023-12-20T09:21:22;6.50;98.80
3069;DHT22;1545;51.728;8.796;2023-12-20T09:23:48;6.50;98.80
3069;DHT22;1545;51.728;8.796;2023-12-20T09:26:13;6.50;98.80
3069;DHT22;1545;51.728;8.796;2023-12-20T09:28:39;6.60;98.80
3069;DHT22;1545;51.728;8.796;2023-12-20T09:31:05;6.60;98.80
3069;DHT22;1545;51.728;8.796;2023-12-20T09:33:32;6.60;98.80
3069;DHT22;1545;51.728;8.796;2023-12-20T09:35:58;6.60;98.80
3069;DHT22;1545;51.728;8.796;2023-12-20T09:38:23;6.60;98.80
3069;DHT22;1545;51.728;8.796;2023-12-20T09:40:49;6.60;98.80
3069;DHT22;1545;51.728;8.796;2023-12-20T09:43:15;6.60;98.80
3069;DHT22;1545;51.728;8.796;2023-12-20T09:45:42;6.60;98.80
3069;DHT22;1545;51.728;8.796;2023-12-20T09:48:10;6.60;98.80
3069;DHT22;1545;51.728;8.796;2023-12-20T09:50:36;6.60;98.80
3069;DHT22;1545;51.728;8.796;2023-12-20T09:53:02;6.60;98.80
3069;DHT22;1545;51.728;8.796;2023-12-20T09:55:30;6.70;98.80
3069;DHT22;1545;51.728;8.796;2023-12-20T09:57:57;6.70;98.80
3069;DHT22;1545;51.728;8.796;2023-12-20T10:00:22;6.80;98.80
3069;DHT22;1545;51.728;8.796;2023-12-20T10:02:56;6.90;98.80
3069;DHT22;1545;51.728;8.796;2023-12-20T10:05:27;6.90;98.80
3069;DHT22;1545;51.728;8.796;2023-12-20T10:07:52;6.90;98.80
3069;DHT22;1545;51.728;8.796;2023-12-20T10:10:18;7.00;98.80
3069;DHT22;1545;51.728;8.796;2023-12-20T10:13:04;6.90;98.80
3069;DHT22;1545;51.728;8.796;2023-12-20T10:15:30;7.00;98.80
3069;DHT22;1545;51.728;8.796;2023-12-20T10:17:56;6.90;98.80
3069;DHT22;1545;51.728;8.796;2023-12-20T10:20:22;6.90;98.80
3069;DHT22;1545;51.728;8.796;2023-12-20T10:22:48;6.90;98.80
3069;DHT22;1545;51.728;8.796;2023-12-20T10:25:14;6.90;98.80
3069;DHT22;1545;51.728;8.796;2023-12-20T10:27:40;6.90;98.80
3069;DHT22;1545;51.728;8.796;2023-12-20T10:30:05;7.00;98.80
3069;DHT22;1545;51.728;8.796;2023-12-20T10:32:31;6.90;98.80
3069;DHT22;1545;51.728;8.796;2023-12-20T10:34:57;6.90;98.80
3069;DHT22;1545;51.728;8.796;2023-12-20T10:37:24;6.90;98.80
3069;DHT22;1545;51.728;8.796;2023-12-20T10:39:51;6.90;98.80
3069;DHT22;1545;51.728;8.796;2023-12-20T10:42:20;6.90;98.80
3069;DHT22;1545;51.728;8.796;2023-12-20T10:44:46;7.00;98.80
3069;DHT22;1545;51.728;8.796;2023-12-20T10:47:13;6.90;98.80
3069;DHT22;1545;51.728;8.796;2023-12-20T10:49:39;6.90;98.80
3069;DHT22;1545;51.728;8.796;2023-12-20T10:52:05;6.90;98.80
3069;DHT22;1545;51.728;8.796;2023-12-20T10:54:32;6.90;98.80
3069;DHT22;1545;51.728;8.796;2023-12-20T10:56:58;6.90;98.80
3069;DHT22;1545;51.728;8.796;2023-12-20T10:59:24;7.00;98.80
3069;DHT22;1545;51.728;8.796;2023-12-20T11:01:50;7.10;98.80
3069;DHT22;1545;51.728;8.796;2023-12-20T11:04:27;7.10;98.80
3069;DHT22;1545;51.728;8.796;2023-12-20T11:07:21;7.20;98.80
3069;DHT22;1545;51.728;8.796;2023-12-20T11:13:10;7.20;98.80
3069;DHT22;1545;51.728;8.796;2023-12-20T11:15:37;7.10;98.80
3069;DHT22;1545;51.728;8.796;2023-12-20T11:18:04;7.10;98.80
3069;DHT22;1545;51.728;8.796;2023-12-20T11:20:37;7.10;98.80
3069;DHT22;1545;51.728;8.796;2023-12-20T11:23:03;7.10;98.80
3069;DHT22;1545;51.728;8.796;2023-12-20T11:25:29;7.00;98.80
3069;DHT22;1545;51.728;8.796;2023-12-20T11:28:08;6.90;98.80
3069;DHT22;1545;51.728;8.796;2023-12-20T11:30:50;6.90;98.80
3069;DHT22;1545;51.728;8.796;2023-12-20T11:33:16;6.90;98.80
3069;DHT22;1545;51.728;8.796;2023-12-20T11:35:42;6.90;98.80
3069;DHT22;1545;51.728;8.796;2023-12-20T11:38:09;6.90;98.80
3069;DHT22;1545;51.728;8.796;2023-12-20T11:40:35;6.90;98.80
3069;DHT22;1545;51.728;8.796;2023-12-20T11:43:00;6.90;98.80
3069;DHT22;1545;51.728;8.796;2023-12-20T11:45:26;6.90;98.80
3069;DHT22;1545;51.728;8.796;2023-12-20T11:47:53;6.90;98.80
3069;DHT22;1545;51.728;8.796;2023-12-20T11:50:20;7.00;98.80
3069;DHT22;1545;51.728;8.796;2023-12-20T11:52:46;7.00;98.80
3069;DHT22;1545;51.728;8.796;2023-12-20T11:55:12;7.00;98.80
3069;DHT22;1545;51.728;8.796;2023-12-20T11:57:38;7.00;98.80
3069;DHT22;1545;51.728;8.796;2023-12-20T12:00:06;7.00;98.80
3069;DHT22;1545;51.728;8.796;2023-12-20T12:02:32;6.90;98.80
3069;DHT22;1545;51.728;8.796;2023-12-20T12:04:57;7.00;98.80
3069;DHT22;1545;51.728;8.796;2023-12-20T12:07:24;7.00;98.80
3069;DHT22;1545;51.728;8.796;2023-12-20T12:09:50;7.00;98.80
3069;DHT22;1545;51.728;8.796;2023-12-20T12:12:16;7.00;98.80
3069;DHT22;1545;51.728;8.796;2023-12-20T12:14:42;7.00;98.80
3069;DHT22;1545;51.728;8.796;2023-12-20T12:17:13;7.10;98.80
3069;DHT22;1545;51.728;8.796;2023-12-20T12:19:42;7.00;98.80
3069;DHT22;1545;51.728;8.796;2023-12-20T12:22:13;7.00;98.80
3069;DHT22;1545;51.728;8.796;2023-12-20T12:24:48;7.00;98.80
3069;DHT22;1545;51.728;8.796;2023-12-20T12:27:15;7.20;98.80
3069;DHT22;1545;51.728;8.796;2023-12-20T12:30:03;7.30;98.80
3069;DHT22;1545;51.728;8.796;2023-12-20T12:32:29;7.30;98.80
3069;DHT22;1545;51.728;8.796;2023-12-20T12:34:54;7.40;98.80
3069;DHT22;1545;51.728;8.796;2023-12-20T12:37:20;7.30;98.80
3069;DHT22;1545;51.728;8.796;2023-12-20T12:39:47;7.30;98.80
3069;DHT22;1545;51.728;8.796;2023-12-20T12:42:12;7.30;98.80
3069;DHT22;1545;51.728;8.796;2023-12-20T12:44:37;7.30;98.80
3069;DHT22;1545;51.728;8.796;2023-12-20T12:47:03;7.30;98.80
3069;DHT22;1545;51.728;8.796;2023-12-20T12:49:29;7.30;98.80
3069;DHT22;1545;51.728;8.796;2023-12-20T12:51:54;7.40;98.80
3069;DHT22;1545;51.728;8.796;2023-12-20T12:54:23;7.50;98.80
3069;DHT22;1545;51.728;8.796;2023-12-20T12:56:49;7.50;98.80
3069;DHT22;1545;51.728;8.796;2023-12-20T12:59:16;7.50;98.80
3069;DHT22;1545;51.728;8.796;2023-12-20T13:01:41;7.50;98.80
3069;DHT22;1545;51.728;8.796;2023-12-20T13:04:07;7.50;98.80
3069;DHT22;1545;51.728;8.796;2023-12-20T13:06:36;7.50;98.80
3069;DHT22;1545;51.728;8.796;2023-12-20T13:09:02;7.50;98.80
3069;DHT22;1545;51.728;8.796;2023-12-20T13:11:27;7.60;98.80
3069;DHT22;1545;51.728;8.796;2023-12-20T13:13:53;7.60;98.80
3069;DHT22;1545;51.728;8.796;2023-12-20T13:16:18;7.50;98.80
3069;DHT22;1545;51.728;8.796;2023-12-20T13:18:44;7.50;98.80
3069;DHT22;1545;51.728;8.796;2023-12-20T13:21:09;7.50;98.80
3069;DHT22;1545;51.728;8.796;2023-12-20T13:23:35;7.50;98.80
3069;DHT22;1545;51.728;8.796;2023-12-20T13:26:01;7.50;98.80
3069;DHT22;1545;51.728;8.796;2023-12-20T13:28:27;7.40;98.80
3069;DHT22;1545;51.728;8.796;2023-12-20T13:30:52;7.40;98.80
3069;DHT22;1545;51.728;8.796;2023-12-20T13:33:18;7.40;98.80
3069;DHT22;1545;51.728;8.796;2023-12-20T13:35:43;7.40;98.80
3069;DHT22;1545;51.728;8.796;2023-12-20T13:38:09;7.30;98.80
3069;DHT22;1545;51.728;8.796;2023-12-20T13:40:34;7.40;98.80
3069;DHT22;1545;51.728;8.796;2023-12-20T13:43:00;7.40;98.80
3069;DHT22;1545;51.728;8.796;2023-12-20T13:45:25;7.40;98.80
3069;DHT22;1545;51.728;8.796;2023-12-20T13:47:51;7.40;98.80
3069;DHT22;1545;51.728;8.796;2023-12-20T13:50:16;7.40;98.80
3069;DHT22;1545;51.728;8.796;2023-12-20T13:52:42;7.40;98.80
3069;DHT22;1545;51.728;8.796;2023-12-20T13:55:08;7.40;98.80
3069;DHT22;1545;51.728;8.796;2023-12-20T13:57:34;7.30;98.80
3069;DHT22;1545;51.728;8.796;2023-12-20T14:00:03;7.30;98.80
3069;DHT22;1545;51.728;8.796;2023-12-20T14:02:30;7.30;98.80
3069;DHT22;1545;51.728;8.796;2023-12-20T14:04:55;7.20;98.80
3069;DHT22;1545;51.728;8.796;2023-12-20T14:07:20;7.20;98.80
3069;DHT22;1545;51.728;8.796;2023-12-20T14:09:46;7.20;98.80
3069;DHT22;1545;51.728;8.796;2023-12-20T14:12:12;7.20;98.80
3069;DHT22;1545;51.728;8.796;2023-12-20T14:14:37;7.10;98.80
3069;DHT22;1545;51.728;8.796;2023-12-20T14:17:03;7.10;98.80
3069;DHT22;1545;51.728;8.796;2023-12-20T14:19:29;7.10;98.80
3069;DHT22;1545;51.728;8.796;2023-12-20T14:21:55;7.10;98.80
3069;DHT22;1545;51.728;8.796;2023-12-20T14:24:20;7.10;98.80
3069;DHT22;1545;51.728;8.796;2023-12-20T14:26:46;7.10;98.80
3069;DHT22;1545;51.728;8.796;2023-12-20T14:29:12;7.10;98.80
3069;DHT22;1545;51.728;8.796;2023-12-20T14:31:37;7.10;98.80
3069;DHT22;1545;51.728;8.796;2023-12-20T14:34:04;7.10;98.80
3069;DHT22;1545;51.728;8.796;2023-12-20T14:36:30;7.10;98.80
3069;DHT22;1545;51.728;8.796;2023-12-20T14:38:56;7.10;98.80
3069;DHT22;1545;51.728;8.796;2023-12-20T14:41:22;7.10;98.80
3069;DHT22;1545;51.728;8.796;2023-12-20T14:43:50;7.10;98.80
3069;DHT22;1545;51.728;8.796;2023-12-20T14:46:17;7.10;98.80
3069;DHT22;1545;51.728;8.796;2023-12-20T14:48:42;7.10;98.80
3069;DHT22;1545;51.728;8.796;2023-12-20T14:51:08;7.10;98.80
3069;DHT22;1545;51.728;8.796;2023-12-20T14:53:34;7.10;98.80
3069;DHT22;1545;51.728;8.796;2023-12-20T14:56:03;7.10;98.80
3069;DHT22;1545;51.728;8.796;2023-12-20T14:58:29;7.00;98.80
3069;DHT22;1545;51.728;8.796;2023-12-20T15:00:55;7.00;98.80
3069;DHT22;1545;51.728;8.796;2023-12-20T15:03:21;7.10;98.80
3069;DHT22;1545;51.728;8.796;2023-12-20T15:05:47;7.10;98.80
3069;DHT22;1545;51.728;8.796;2023-12-20T15:08:13;7.10;98.80
3069;DHT22;1545;51.728;8.796;2023-12-20T15:10:39;7.10;98.80
3069;DHT22;1545;51.728;8.796;2023-12-20T15:13:04;7.10;98.80
3069;DHT22;1545;51.728;8.796;2023-12-20T15:15:30;7.10;98.80
3069;DHT22;1545;51.728;8.796;2023-12-20T15:17:57;7.10;98.80
3069;DHT22;1545;51.728;8.796;2023-12-20T15:20:23;7.10;98.80
3069;DHT22;1545;51.728;8.796;2023-12-20T15:22:48;7.10;98.80
3069;DHT22;1545;51.728;8.796;2023-12-20T15:25:14;7.10;98.80
3069;DHT22;1545;51.728;8.796;2023-12-20T15:27:46;7.10;98.80
3069;DHT22;1545;51.728;8.796;2023-12-20T15:30:14;7.10;98.80
3069;DHT22;1545;51.728;8.796;2023-12-20T15:32:40;7.10;98.80
3069;DHT22;1545;51.728;8.796;2023-12-20T15:35:06;7.10;98.80
3069;DHT22;1545;51.728;8.796;2023-12-20T15:37:32;7.10;98.80
3069;DHT22;1545;51.728;8.796;2023-12-20T15:39:57;7.10;98.80
3069;DHT22;1545;51.728;8.796;2023-12-20T15:42:23;7.10;98.80
3069;DHT22;1545;51.728;8.796;2023-12-20T15:44:48;7.10;98.80
3069;DHT22;1545;51.728;8.796;2023-12-20T15:47:14;7.10;98.80
3069;DHT22;1545;51.728;8.796;2023-12-20T15:49:40;7.10;98.80
3069;DHT22;1545;51.728;8.796;2023-12-20T15:52:05;7.10;98.80
3069;DHT22;1545;51.728;8.796;2023-12-20T15:54:31;7.00;98.80
3069;DHT22;1545;51.728;8.796;2023-12-20T15:56:56;7.00;98.80
3069;DHT22;1545;51.728;8.796;2023-12-20T15:59:22;7.00;98.80
3069;DHT22;1545;51.728;8.796;2023-12-20T16:01:48;7.00;98.80
3069;DHT22;1545;51.728;8.796;2023-12-20T16:04:13;7.00;98.80
3069;DHT22;1545;51.728;8.796;2023-12-20T16:06:39;7.00;98.80
3069;DHT22;1545;51.728;8.796;2023-12-20T16:09:05;7.10;98.80
3069;DHT22;1545;51.728;8.796;2023-12-20T16:11:30;7.10;98.80
3069;DHT22;1545;51.728;8.796;2023-12-20T16:13:56;7.00;98.80